Time;durP1;ratioP1;P1;durP2;ratioP2;P2;SDS_P1;SDS_P2;PMS_P1;PMS_P2;Temp;Humidity;BMP_temperature;BMP_pressure;BME280_temperature;BME280_humidity;BME280_pressure;Samples;Min_cycle;Max_cycle;Signal;HPM_P1;HPM_P2
2022/10/02 00:01:20;;;;;;;7.40;2.42;;;13.00;41.20;;;;;;7360114;19;20034;-69
2022/10/02 00:03:51;;;;;;;9.32;2.20;;;13.00;41.70;;;;;;7381491;19;20014;-69
2022/10/02 00:06:27;;;;;;;7.68;2.40;;;12.90;41.80;;;;;;7359682;19;20883;-69
2022/10/02 00:09:02;;;;;;;10.30;2.50;;;12.90;42.30;;;;;;7360164;19;20015;-69
2022/10/02 00:11:42;;;;;;;7.05;2.35;;;12.90;42.40;;;;;;7359093;19;20097;-69
2022/10/02 00:14:16;;;;;;;6.82;2.40;;;12.90;42.80;;;;;;7359082;19;20073;-69
2022/10/02 00:16:49;;;;;;;13.82;2.70;;;13.00;43.80;;;;;;7358618;19;20960;-69
2022/10/02 00:19:21;;;;;;;7.22;2.42;;;12.90;44.60;;;;;;7359052;19;20779;-69
2022/10/02 00:22:10;;;;;;;6.72;2.50;;;12.90;46.40;;;;;;7381149;19;20340;-69
2022/10/02 00:24:43;;;;;;;16.77;3.13;;;12.80;47.80;;;;;;7357492;19;20010;-69
2022/10/02 00:27:24;;;;;;;9.15;2.65;;;12.70;48.50;;;;;;7355997;19;20018;-69
2022/10/02 00:29:57;;;;;;;9.55;2.65;;;12.70;49.40;;;;;;7356917;19;20003;-69
2022/10/02 00:32:35;;;;;;;7.32;2.90;;;12.70;50.30;;;;;;7359108;19;20014;-69
2022/10/02 00:35:36;;;;;;;6.05;2.45;;;12.70;51.30;;;;;;7359747;19;20022;-69
2022/10/02 00:38:20;;;;;;;8.10;2.88;;;12.60;51.70;;;;;;7357395;19;20019;-69
2022/10/02 00:41:20;;;;;;;8.57;2.83;;;12.60;52.40;;;;;;7356400;19;20038;-70
2022/10/02 00:44:05;;;;;;;7.78;2.65;;;12.60;52.50;;;;;;7360236;19;20015;-69
2022/10/02 00:46:39;;;;;;;;;;;12.50;52.80;;;;;;7357839;19;20098;-69
2022/10/02 00:49:41;;;;;;;7.70;2.78;;;12.50;53.10;;;;;;7359340;19;19922;-70
2022/10/02 00:52:22;;;;;;;9.80;2.58;;;12.60;53.30;;;;;;7359525;19;20021;-69
2022/10/02 00:55:21;;;;;;;8.13;2.65;;;12.50;53.10;;;;;;7380943;19;20022;-68
2022/10/02 00:58:09;;;;;;;9.70;3.17;;;12.50;53.30;;;;;;7356841;19;20014;-69
2022/10/02 01:00:40;;;;;;;7.63;2.67;;;12.50;53.80;;;;;;7357323;19;20014;-68
2022/10/02 01:03:17;;;;;;;6.82;2.33;;;12.50;54.20;;;;;;7357917;19;20549;-69
2022/10/02 01:05:47;;;;;;;12.88;2.53;;;12.50;54.40;;;;;;7356620;19;20022;-69
2022/10/02 01:08:18;;;;;;;8.73;2.40;;;12.50;54.70;;;;;;7358709;19;20067;-69
2022/10/02 01:10:51;;;;;;;11.27;2.83;;;12.50;54.60;;;;;;7355730;19;20007;-69
2022/10/02 01:13:21;;;;;;;9.43;2.42;;;12.50;54.30;;;;;;7359910;19;20010;-69
2022/10/02 01:15:54;;;;;;;11.13;2.33;;;12.50;54.30;;;;;;7380011;19;20449;-69
2022/10/02 01:18:24;;;;;;;9.40;2.30;;;12.60;54.30;;;;;;7356918;19;20010;-69
2022/10/02 01:20:57;;;;;;;7.35;2.10;;;12.50;54.00;;;;;;7356310;19;20015;-69
2022/10/02 01:23:34;;;;;;;6.85;2.47;;;12.60;53.90;;;;;;7356590;19;20397;-69
2022/10/02 01:26:07;;;;;;;9.05;2.42;;;12.60;53.50;;;;;;7356920;19;20014;-69
2022/10/02 01:28:37;;;;;;;9.23;2.78;;;12.60;53.30;;;;;;7356184;19;20029;-69
2022/10/02 01:31:13;;;;;;;8.52;2.30;;;12.60;53.40;;;;;;7374920;19;20022;-70
2022/10/02 01:33:47;;;;;;;7.20;2.10;;;12.60;53.20;;;;;;7379794;19;20021;-69
2022/10/02 01:36:17;;;;;;;10.20;2.55;;;12.60;53.00;;;;;;7356437;19;20089;-69
2022/10/02 01:38:50;;;;;;;9.50;2.40;;;12.60;52.80;;;;;;7361090;19;20018;-69
2022/10/02 01:41:22;;;;;;;8.60;2.50;;;12.60;52.90;;;;;;7363752;19;20254;-68
2022/10/02 01:43:55;;;;;;;5.10;2.22;;;12.60;52.90;;;;;;7366039;19;20412;-69
2022/10/02 01:46:33;;;;;;;7.15;2.20;;;12.60;52.70;;;;;;7363395;19;20014;-69
2022/10/02 01:49:16;;;;;;;10.02;2.60;;;12.70;52.80;;;;;;7386859;19;20024;-69
2022/10/02 01:51:57;;;;;;;7.72;2.03;;;12.70;53.00;;;;;;7364633;19;20018;-69
2022/10/02 01:54:39;;;;;;;7.32;2.00;;;12.70;53.00;;;;;;7363950;19;20022;-69
2022/10/02 01:57:25;;;;;;;6.13;2.53;;;12.70;53.10;;;;;;7360855;19;20046;-69
2022/10/02 02:00:07;;;;;;;7.20;2.15;;;12.70;53.20;;;;;;7363071;19;20032;-69
2022/10/02 02:02:49;;;;;;;6.95;2.17;;;12.70;53.30;;;;;;7364028;19;20006;-69
2022/10/02 02:05:28;;;;;;;8.75;2.10;;;12.70;53.10;;;;;;7363130;19;20011;-69
2022/10/02 02:08:07;;;;;;;7.20;2.20;;;12.70;52.80;;;;;;7362674;19;20014;-69
2022/10/02 02:10:45;;;;;;;9.27;2.25;;;12.70;52.60;;;;;;7361557;19;20018;-69
2022/10/02 02:13:25;;;;;;;7.72;2.47;;;12.70;52.50;;;;;;7365757;19;20041;-69
2022/10/02 02:16:02;;;;;;;9.35;2.60;;;12.80;52.50;;;;;;7385264;19;20015;-69
2022/10/02 02:18:40;;;;;;;8.27;2.85;;;12.80;52.60;;;;;;7361308;19;20017;-69
2022/10/02 02:21:16;;;;;;;6.20;2.42;;;12.80;52.50;;;;;;7361471;19;20014;-69
2022/10/02 02:23:48;;;;;;;9.65;2.38;;;12.80;52.50;;;;;;7363326;19;20021;-69
2022/10/02 02:26:20;;;;;;;9.45;2.33;;;12.80;52.50;;;;;;7362085;19;20078;-69
2022/10/02 02:28:57;;;;;;;5.30;2.22;;;12.80;52.80;;;;;;7361864;19;20046;-69
2022/10/02 02:31:32;;;;;;;6.57;2.30;;;12.80;53.20;;;;;;7363322;19;20020;-69
2022/10/02 02:34:03;;;;;;;;;;;12.80;53.40;;;;;;7386984;19;20025;-69
2022/10/02 02:36:38;;;;;;;5.82;2.10;;;12.80;53.50;;;;;;7361325;19;19918;-69
2022/10/02 02:39:11;;;;;;;6.32;2.03;;;12.80;53.50;;;;;;7361373;19;20127;-69
2022/10/02 02:41:46;;;;;;;10.90;2.13;;;12.80;53.50;;;;;;7361443;19;20063;-69
2022/10/02 02:44:23;;;;;;;7.53;2.30;;;12.80;53.40;;;;;;7363117;19;20747;-69
2022/10/02 02:47:06;;;;;;;8.55;2.00;;;12.80;53.90;;;;;;7361427;19;20037;-69
2022/10/02 02:49:46;;;;;;;9.80;2.20;;;12.80;54.10;;;;;;7360197;19;20824;-69
2022/10/02 02:52:22;;;;;;;11.77;2.58;;;12.70;54.30;;;;;;7364058;19;20019;-70
2022/10/02 02:54:59;;;;;;;6.72;2.58;;;12.80;54.60;;;;;;7385328;19;20043;-69
2022/10/02 02:57:34;;;;;;;9.48;2.60;;;12.70;54.70;;;;;;7359094;19;20057;-69
2022/10/02 03:00:08;;;;;;;6.40;3.03;;;12.80;55.00;;;;;;7360981;19;20019;-69
2022/10/02 03:02:38;;;;;;;8.05;2.45;;;12.80;55.10;;;;;;7361043;19;20006;-69
2022/10/02 03:05:14;;;;;;;10.40;2.33;;;12.80;55.00;;;;;;7361855;19;20043;-69
2022/10/02 03:07:50;;;;;;;10.55;2.58;;;12.80;55.20;;;;;;7359417;19;20040;-69
2022/10/02 03:10:30;;;;;;;10.02;2.10;;;12.80;55.30;;;;;;7361310;19;20121;-70
2022/10/02 03:13:11;;;;;;;8.20;2.25;;;12.80;55.40;;;;;;7384635;19;20014;-69
2022/10/02 03:15:54;;;;;;;6.68;2.63;;;12.80;55.60;;;;;;7359458;19;20014;-69
2022/10/02 03:18:54;;;;;;;10.77;2.15;;;12.80;55.30;;;;;;7360582;19;20013;-69
2022/10/02 03:21:29;;;;;;;8.23;2.47;;;12.70;54.90;;;;;;7360637;19;20006;-69
2022/10/02 03:24:07;;;;;;;14.05;2.47;;;12.80;55.00;;;;;;7362072;19;20015;-69
2022/10/02 03:26:43;;;;;;;6.20;2.38;;;12.80;54.80;;;;;;7359909;19;20041;-69
2022/10/02 03:29:19;;;;;;;9.70;2.65;;;12.80;54.50;;;;;;7360416;19;20007;-69
2022/10/02 03:31:52;;;;;;;8.32;2.08;;;12.80;54.40;;;;;;7362340;19;20042;-69
2022/10/02 03:34:23;;;;;;;9.05;2.83;;;12.80;54.10;;;;;;7362944;19;20027;-69
2022/10/02 03:36:53;;;;;;;7.28;2.47;;;12.80;53.90;;;;;;7381872;19;20055;-69
2022/10/02 03:39:23;;;;;;;10.85;2.55;;;12.80;54.10;;;;;;7359951;19;20014;-69
2022/10/02 03:41:55;;;;;;;6.72;2.20;;;12.80;54.10;;;;;;7360261;19;20007;-69
2022/10/02 03:44:25;;;;;;;8.60;2.67;;;12.80;54.20;;;;;;7361214;19;20017;-69
2022/10/02 03:46:57;;;;;;;11.10;3.33;;;12.80;54.40;;;;;;7358596;19;20083;-68
2022/10/02 03:49:27;;;;;;;10.40;2.20;;;12.80;54.40;;;;;;7359711;19;20019;-69
2022/10/02 03:51:57;;;;;;;13.32;2.90;;;12.80;54.00;;;;;;7383092;19;20039;-68
2022/10/02 03:54:32;;;;;;;6.43;2.17;;;12.90;53.80;;;;;;7360735;19;20011;-68
2022/10/02 03:57:07;;;;;;;7.65;2.33;;;12.90;53.30;;;;;;7357781;19;20058;-69
2022/10/02 03:59:41;;;;;;;;;;;12.90;52.80;;;;;;7358478;19;20028;-68
2022/10/02 04:02:21;;;;;;;9.77;2.40;;;12.90;52.70;;;;;;7359978;19;19907;-69
2022/10/02 04:04:54;;;;;;;12.15;2.53;;;12.90;52.80;;;;;;7360461;19;20485;-69
2022/10/02 04:07:30;;;;;;;5.47;2.50;;;12.90;52.90;;;;;;7357702;19;20010;-69
2022/10/02 04:10:15;;;;;;;5.85;2.17;;;12.90;53.10;;;;;;7380676;19;20296;-69
2022/10/02 04:12:51;;;;;;;6.28;2.17;;;12.90;52.80;;;;;;7359881;19;20007;-68
2022/10/02 04:15:27;;;;;;;7.00;2.38;;;12.90;52.70;;;;;;7359489;19;20010;-68
2022/10/02 04:18:05;;;;;;;10.38;2.67;;;12.90;52.90;;;;;;7358221;19;20254;-69
2022/10/02 04:20:42;;;;;;;12.18;2.00;;;13.00;53.00;;;;;;7358180;19;20022;-69
2022/10/02 04:23:20;;;;;;;6.43;2.25;;;12.90;53.20;;;;;;7360336;19;20010;-69
2022/10/02 04:25:54;;;;;;;10.40;2.72;;;12.90;53.80;;;;;;7359506;19;20509;-69
2022/10/02 04:28:29;;;;;;;10.00;2.65;;;12.90;54.10;;;;;;7360634;19;20018;-69
2022/10/02 04:31:00;;;;;;;8.20;2.65;;;12.90;54.60;;;;;;7379627;19;20377;-69
2022/10/02 04:33:32;;;;;;;7.03;2.15;;;12.90;55.00;;;;;;7360845;19;20025;-69
2022/10/02 04:36:14;;;;;;;7.60;2.30;;;12.90;55.10;;;;;;7358828;19;20022;-69
2022/10/02 04:39:08;;;;;;;5.75;2.25;;;12.80;55.30;;;;;;7357911;19;20538;-69
2022/10/02 04:42:03;;;;;;;8.80;2.92;;;12.80;55.60;;;;;;7357377;19;20023;-68
2022/10/02 04:44:41;;;;;;;;;;;12.90;55.40;;;;;;7360655;19;20010;-68
2022/10/02 04:47:31;;;;;;;9.00;2.30;;;12.90;54.50;;;;;;7358067;19;19914;-70
2022/10/02 04:50:33;;;;;;;12.05;2.70;;;12.90;54.10;;;;;;7356706;19;20375;-69
2022/10/02 04:53:21;;;;;;;7.30;2.17;;;12.90;54.10;;;;;;7358422;19;20014;-69
2022/10/02 04:56:03;;;;;;;9.13;2.60;;;12.90;54.10;;;;;;7357676;19;20014;-69
2022/10/02 04:58:57;;;;;;;7.85;2.35;;;12.90;54.30;;;;;;7357394;19;20025;-68
2022/10/02 05:01:35;;;;;;;10.27;2.92;;;12.90;50.30;;;;;;7357780;19;20019;-69
2022/10/02 05:04:20;;;;;;;7.40;1.85;;;12.90;48.10;;;;;;7381423;19;20018;-69
2022/10/02 05:07:09;;;;;;;6.30;2.22;;;12.90;48.00;;;;;;7356337;19;20014;-69
2022/10/02 05:09:49;;;;;;;6.53;2.42;;;12.90;48.00;;;;;;7357211;19;20024;-69
2022/10/02 05:12:35;;;;;;;9.00;2.65;;;12.90;48.70;;;;;;7357677;19;20018;-69
2022/10/02 05:15:41;;;;;;;4.80;2.05;;;12.90;49.10;;;;;;7358113;19;20062;-69
2022/10/02 05:18:40;;;;;;;9.13;2.40;;;12.90;50.10;;;;;;7357899;19;20026;-68
2022/10/02 05:21:36;;;;;;;11.75;2.78;;;12.80;50.60;;;;;;7357627;19;20027;-68
2022/10/02 05:24:26;;;;;;;10.00;2.88;;;12.80;51.90;;;;;;7357896;19;20014;-68
2022/10/02 05:27:13;;;;;;;7.78;2.95;;;12.80;52.50;;;;;;7356195;19;20022;-69
2022/10/02 05:30:10;;;;;;;13.27;2.60;;;12.80;53.20;;;;;;7354725;19;20019;-69
2022/10/02 05:32:56;;;;;;;6.22;2.03;;;12.80;54.10;;;;;;7358340;19;20025;-69
2022/10/02 05:35:40;;;;;;;8.95;2.38;;;12.70;54.80;;;;;;7357244;19;20010;-69
2022/10/02 05:38:22;;;;;;;10.52;2.75;;;12.70;55.40;;;;;;7357535;19;20538;-69
2022/10/02 05:41:02;;;;;;;9.93;2.95;;;12.70;55.90;;;;;;7355324;19;20078;-69
2022/10/02 05:43:42;;;;;;;5.95;2.30;;;12.70;55.90;;;;;;7358556;19;21009;-69
2022/10/02 05:46:16;;;;;;;9.80;2.40;;;12.70;56.60;;;;;;7357614;19;20475;-69
2022/10/02 05:48:48;;;;;;;6.75;2.35;;;12.70;57.20;;;;;;7378083;19;20561;-69
2022/10/02 05:51:24;;;;;;;11.68;3.13;;;12.70;57.40;;;;;;7356367;19;20414;-69
2022/10/02 05:54:01;;;;;;;8.93;2.75;;;12.70;58.00;;;;;;7357222;19;20389;-69
2022/10/02 05:56:40;;;;;;;6.97;2.63;;;12.70;58.10;;;;;;7353869;19;20029;-69
2022/10/02 05:59:17;;;;;;;9.90;2.60;;;12.70;59.00;;;;;;7355886;19;20017;-69
2022/10/02 06:01:50;;;;;;;9.00;2.80;;;12.70;59.60;;;;;;7357069;19;20014;-69
2022/10/02 06:04:28;;;;;;;8.10;2.60;;;12.70;59.90;;;;;;7356062;19;20011;-69
2022/10/02 06:07:05;;;;;;;8.25;3.03;;;12.70;59.90;;;;;;7376325;19;20019;-69
2022/10/02 06:09:38;;;;;;;12.00;2.90;;;12.70;60.00;;;;;;7355707;19;20010;-69
2022/10/02 06:12:16;;;;;;;12.05;3.10;;;12.70;60.60;;;;;;7356263;19;20628;-69
2022/10/02 06:14:51;;;;;;;11.70;2.92;;;12.70;61.40;;;;;;7356574;19;20477;-69
2022/10/02 06:17:25;;;;;;;10.30;2.63;;;12.70;61.80;;;;;;7355076;19;20350;-70
2022/10/02 06:20:01;;;;;;;5.63;2.55;;;12.70;62.10;;;;;;7356097;19;20070;-69
2022/10/02 06:22:41;;;;;;;11.38;3.08;;;12.70;62.40;;;;;;7356489;19;20022;-69
2022/10/02 06:25:18;;;;;;;13.43;3.35;;;12.70;62.50;;;;;;7363874;19;20025;-70
2022/10/02 06:27:55;;;;;;;11.18;3.25;;;12.70;63.10;;;;;;7382350;19;20030;-70
2022/10/02 06:30:25;;;;;;;11.05;3.47;;;12.80;63.50;;;;;;7361876;19;20014;-69
2022/10/02 06:33:00;;;;;;;11.38;3.17;;;12.80;63.60;;;;;;7363777;19;20440;-69
2022/10/02 06:35:42;;;;;;;14.77;3.42;;;12.80;64.20;;;;;;7362970;19;20145;-69
2022/10/02 06:38:25;;;;;;;13.77;3.60;;;12.80;63.90;;;;;;7360407;19;20015;-70
2022/10/02 06:41:05;;;;;;;9.05;3.35;;;12.80;64.00;;;;;;7360575;19;20015;-70
2022/10/02 06:44:01;;;;;;;10.70;3.25;;;12.80;64.10;;;;;;7363680;19;20010;-69
2022/10/02 06:46:39;;;;;;;11.27;2.90;;;12.70;62.90;;;;;;7360817;19;20011;-69
2022/10/02 06:49:16;;;;;;;8.05;2.90;;;12.70;63.10;;;;;;7377159;19;20514;-70
2022/10/02 06:51:58;;;;;;;13.82;2.72;;;12.70;63.00;;;;;;7385245;19;20018;-70
2022/10/02 06:54:43;;;;;;;8.63;3.10;;;12.70;62.80;;;;;;7362146;19;20034;-70
2022/10/02 06:57:25;;;;;;;15.02;3.40;;;12.80;63.20;;;;;;7359551;19;20017;-70
2022/10/02 07:00:14;;;;;;;11.07;3.10;;;12.70;62.70;;;;;;7358618;19;20462;-69
2022/10/02 07:03:17;;;;;;;12.77;3.38;;;12.70;63.10;;;;;;7361577;19;20014;-69
2022/10/02 07:06:11;;;;;;;11.38;3.33;;;12.70;63.00;;;;;;7361804;19;20010;-69
2022/10/02 07:08:59;;;;;;;7.97;3.58;;;12.70;63.80;;;;;;7359304;19;20392;-69
2022/10/02 07:11:34;;;;;;;8.85;2.97;;;12.70;64.10;;;;;;7360454;19;20026;-69
2022/10/02 07:14:18;;;;;;;11.10;3.45;;;12.70;64.50;;;;;;7361729;19;20018;-69
2022/10/02 07:17:15;;;;;;;8.30;3.67;;;12.80;65.20;;;;;;7359625;19;20026;-69
2022/10/02 07:20:04;;;;;;;10.80;4.05;;;12.70;65.00;;;;;;7360519;19;20011;-69
2022/10/02 07:22:51;;;;;;;14.73;3.92;;;12.70;65.60;;;;;;7361679;19;20021;-70
2022/10/02 07:25:35;;;;;;;10.52;4.20;;;12.70;65.80;;;;;;7361857;19;20021;-69
2022/10/02 07:28:12;;;;;;;9.23;3.13;;;12.70;66.40;;;;;;7381162;19;20033;-69
2022/10/02 07:30:49;;;;;;;15.48;5.30;;;12.70;66.80;;;;;;7361268;19;20022;-69
2022/10/02 07:33:31;;;;;;;9.10;3.80;;;12.70;66.90;;;;;;7362116;19;20556;-69
2022/10/02 07:36:07;;;;;;;11.95;4.95;;;12.70;67.60;;;;;;7360840;19;20416;-69
2022/10/02 07:39:04;;;;;;;8.98;4.50;;;12.80;68.10;;;;;;7358222;19;20018;-68
2022/10/02 07:41:58;;;;;;;10.90;4.20;;;12.80;68.20;;;;;;7359658;19;20494;-69
2022/10/02 07:44:48;;;;;;;15.18;4.80;;;12.80;68.20;;;;;;7360200;19;20011;-69
2022/10/02 07:47:31;;;;;;;10.25;4.63;;;12.80;68.20;;;;;;7360080;19;20094;-69
2022/10/02 07:50:11;;;;;;;10.95;4.25;;;12.70;68.20;;;;;;7358734;19;20014;-69
2022/10/02 07:52:53;;;;;;;12.23;4.25;;;12.90;68.40;;;;;;7360592;19;20081;-70
2022/10/02 07:55:24;;;;;;;11.73;4.07;;;12.80;68.30;;;;;;7360468;19;20010;-69
2022/10/02 07:58:01;;;;;;;14.48;4.80;;;12.80;68.30;;;;;;7379457;19;20590;-70
2022/10/02 08:00:35;;;;;;;9.45;3.78;;;12.80;68.40;;;;;;7358354;19;20007;-71
2022/10/02 08:03:09;;;;;;;9.73;4.20;;;12.80;68.40;;;;;;7360663;19;20079;-70
2022/10/02 08:05:46;;;;;;;8.77;4.22;;;12.80;68.50;;;;;;7359472;19;20018;-70
2022/10/02 08:08:22;;;;;;;9.77;4.50;;;12.80;68.50;;;;;;7359923;19;20006;-70
2022/10/02 08:10:58;;;;;;;9.93;4.50;;;12.80;68.60;;;;;;7359220;19;20014;-70
2022/10/02 08:13:33;;;;;;;7.10;3.72;;;12.80;68.70;;;;;;7359474;19;20496;-69
2022/10/02 08:16:06;;;;;;;9.88;4.30;;;12.90;69.00;;;;;;7382331;19;20513;-69
2022/10/02 08:18:40;;;;;;;8.98;4.50;;;12.90;69.30;;;;;;7358458;19;20015;-69
2022/10/02 08:21:16;;;;;;;7.93;4.15;;;12.80;68.80;;;;;;7358743;19;20019;-70
2022/10/02 08:23:50;;;;;;;6.32;3.50;;;12.90;69.30;;;;;;7359484;19;20010;-69
2022/10/02 08:26:22;;;;;;;;;;;13.00;69.50;;;;;;7360004;19;20025;-69
2022/10/02 08:29:00;;;;;;;7.82;3.35;;;13.00;69.40;;;;;;7357198;19;19929;-69
2022/10/02 08:31:29;;;;;;;7.70;3.20;;;13.00;68.50;;;;;;7359814;19;19996;-69
2022/10/02 08:34:01;;;;;;;7.72;3.28;;;13.10;68.90;;;;;;7381734;19;20025;-69
2022/10/02 08:36:54;;;;;;;5.65;2.72;;;13.10;68.80;;;;;;7358153;19;20790;-69
2022/10/02 08:39:49;;;;;;;6.75;3.15;;;12.90;65.90;;;;;;7356983;19;20010;-69
2022/10/02 08:42:48;;;;;;;9.00;3.85;;;13.00;67.60;;;;;;7358740;19;20033;-70
2022/10/02 08:45:51;;;;;;;7.07;3.10;;;13.10;68.20;;;;;;7358122;19;20006;-69
2022/10/02 08:48:55;;;;;;;6.03;2.70;;;13.20;68.40;;;;;;7356139;19;20502;-69
2022/10/02 08:52:08;;;;;;;5.40;2.22;;;13.20;66.90;;;;;;7357203;19;20020;-69
2022/10/02 08:55:19;;;;;;;8.32;2.40;;;13.20;66.40;;;;;;7356847;19;20824;-70
2022/10/02 08:58:17;;;;;;;5.80;2.63;;;13.50;66.90;;;;;;7357788;19;20014;-69
2022/10/02 09:00:56;;;;;;;7.05;3.03;;;13.50;64.30;;;;;;7359364;19;20363;-70
2022/10/02 09:04:17;;;;;;;5.53;2.65;;;13.70;65.10;;;;;;7358746;19;20037;-69
2022/10/02 09:07:28;;;;;;;5.88;2.63;;;13.80;61.00;;;;;;7354476;19;20014;-69
2022/10/02 09:10:44;;;;;;;8.05;4.43;;;13.70;58.70;;;;;;7354225;19;20017;-70
2022/10/02 09:13:48;;;;;;;8.23;4.60;;;13.70;57.90;;;;;;7257252;19;2004535;-70
2022/10/02 09:16:30;;;;;;;10.95;5.15;;;13.60;56.50;;;;;;7359490;19;20039;-70
2022/10/02 09:19:03;;;;;;;12.82;5.75;;;13.50;56.60;;;;;;7380551;19;20038;-69
2022/10/02 09:21:54;;;;;;;7.22;2.83;;;13.50;57.50;;;;;;7358314;19;20015;-70
2022/10/02 09:24:58;;;;;;;5.70;3.13;;;13.40;58.40;;;;;;7358398;19;20474;-69
2022/10/02 09:27:59;;;;;;;7.85;4.05;;;13.40;59.00;;;;;;7356645;19;20820;-69
2022/10/02 09:30:56;;;;;;;4.78;2.03;;;13.40;59.50;;;;;;7355616;19;20031;-69
2022/10/02 09:33:55;;;;;;;3.67;2.15;;;13.30;60.00;;;;;;7358119;19;20344;-69
2022/10/02 09:36:48;;;;;;;7.20;2.13;;;13.30;59.80;;;;;;7356175;19;20047;-69
2022/10/02 09:39:51;;;;;;;2.85;2.05;;;13.30;60.00;;;;;;7356112;19;20014;-70
2022/10/02 09:42:50;;;;;;;6.07;2.03;;;13.30;60.40;;;;;;7356369;19;20371;-70
2022/10/02 09:46:12;;;;;;;7.25;3.13;;;13.30;60.40;;;;;;7356385;19;20014;-68
2022/10/02 09:49:32;;;;;;;5.75;2.83;;;13.30;60.50;;;;;;7353319;19;20393;-69
2022/10/02 09:52:25;;;;;;;6.93;3.95;;;13.30;62.00;;;;;;7355778;19;20021;-69
2022/10/02 09:55:24;;;;;;;4.70;3.30;;;13.30;62.90;;;;;;7357971;19;20082;-69
2022/10/02 09:58:27;;;;;;;5.22;2.70;;;13.10;62.90;;;;;;7355357;19;20014;-69
2022/10/02 10:01:18;;;;;;;4.70;3.70;;;13.00;64.00;;;;;;7363370;19;20034;-69
2022/10/02 10:04:19;;;;;;;8.05;3.30;;;13.10;64.40;;;;;;7366060;19;20011;-69
2022/10/02 10:07:25;;;;;;;6.75;3.38;;;13.20;64.70;;;;;;7361179;19;20047;-69
2022/10/02 10:10:37;;;;;;;5.35;3.40;;;13.20;65.10;;;;;;7360787;19;20516;-69
2022/10/02 10:13:33;;;;;;;4.22;3.13;;;13.20;65.50;;;;;;7262537;19;2004088;-70
2022/10/02 10:16:49;;;;;;;4.72;3.17;;;13.20;66.00;;;;;;7387554;19;20049;-70
2022/10/02 10:19:58;;;;;;;4.28;2.90;;;13.20;66.00;;;;;;7261536;19;2004073;-70
2022/10/02 10:22:56;;;;;;;4.22;3.15;;;13.40;66.80;;;;;;7363939;19;20021;-69
2022/10/02 10:25:50;;;;;;;3.15;2.85;;;13.50;66.70;;;;;;7362885;19;20024;-70
2022/10/02 10:29:06;;;;;;;4.15;3.72;;;13.50;65.90;;;;;;7361323;19;20003;-70
2022/10/02 10:32:11;;;;;;;3.67;2.72;;;13.50;64.90;;;;;;7361023;19;20018;-70
2022/10/02 10:35:07;;;;;;;4.72;2.70;;;13.40;64.80;;;;;;7363369;19;20488;-70
2022/10/02 10:40:44;;;;;;;3.70;2.65;;;13.20;64.10;;;;;;7361823;19;20011;-70
2022/10/02 10:43:46;;;;;;;4.97;2.50;;;13.20;64.50;;;;;;7363803;19;20014;-70
2022/10/02 10:46:34;;;;;;;8.63;3.63;;;13.20;64.60;;;;;;7361747;19;20021;-71
2022/10/02 10:49:34;;;;;;;5.05;3.25;;;13.30;65.50;;;;;;7384058;19;20022;-70
2022/10/02 10:52:12;;;;;;;4.57;2.75;;;13.40;65.10;;;;;;7261804;19;2004197;-71
2022/10/02 10:55:12;;;;;;;4.78;2.45;;;13.40;65.50;;;;;;7386617;19;20760;-70
2022/10/02 10:57:58;;;;;;;3.03;2.28;;;13.40;64.70;;;;;;7360378;19;20011;-70
2022/10/02 11:00:40;;;;;;;2.78;1.83;;;13.50;64.40;;;;;;7362548;19;20505;-70
2022/10/02 11:03:30;;;;;;;2.78;1.60;;;13.40;63.10;;;;;;7361921;19;20481;-69
2022/10/02 11:06:32;;;;;;;2.47;1.60;;;13.40;64.30;;;;;;7360961;19;20114;-70
2022/10/02 11:09:44;;;;;;;2.65;1.70;;;13.50;64.00;;;;;;7359177;19;20015;-69
2022/10/02 11:12:49;;;;;;;4.35;1.95;;;13.40;62.00;;;;;;7362214;19;20414;-69
2022/10/02 11:16:05;;;;;;;3.45;2.47;;;13.40;61.40;;;;;;7361888;19;20036;-70
2022/10/02 11:19:01;;;;;;;3.25;1.95;;;13.30;62.00;;;;;;7359222;19;20010;-68
2022/10/02 11:21:55;;;;;;;2.25;1.80;;;13.20;62.30;;;;;;7361603;19;20029;-69
2022/10/02 11:25:02;;;;;;;2.17;1.80;;;13.30;63.90;;;;;;7361663;19;20018;-70
2022/10/02 11:27:59;;;;;;;3.05;2.13;;;13.40;64.00;;;;;;7358245;19;20035;-70
2022/10/02 11:30:39;;;;;;;3.05;1.70;;;13.60;64.60;;;;;;7358541;19;20027;-69
2022/10/02 11:33:26;;;;;;;3.03;1.90;;;13.70;63.20;;;;;;7362196;19;20069;-69
2022/10/02 11:36:17;;;;;;;1.52;1.40;;;13.70;62.70;;;;;;7359930;19;20030;-70
2022/10/02 11:39:16;;;;;;;1.60;1.30;;;13.80;63.40;;;;;;7358068;19;20006;-71
2022/10/02 11:42:08;;;;;;;1.15;1.00;;;13.60;58.10;;;;;;7360751;19;20015;-68
2022/10/02 11:44:57;;;;;;;1.83;1.55;;;13.60;60.30;;;;;;7360329;19;20024;-69
2022/10/02 11:47:45;;;;;;;1.10;0.98;;;13.60;60.80;;;;;;7358278;19;20018;-70
2022/10/02 11:51:00;;;;;;;2.03;1.30;;;13.50;58.80;;;;;;7359004;19;20386;-69
2022/10/02 11:53:41;;;;;;;1.05;0.80;;;13.70;59.40;;;;;;7358546;19;20007;-71
2022/10/02 11:56:30;;;;;;;1.70;0.98;;;13.60;58.30;;;;;;7359934;19;20010;-69
2022/10/02 11:59:21;;;;;;;0.90;0.70;;;13.60;59.60;;;;;;7359605;19;20006;-69
2022/10/02 12:01:56;;;;;;;1.10;0.70;;;13.60;59.40;;;;;;7359689;19;20018;-70
2022/10/02 12:04:41;;;;;;;1.38;0.52;;;13.50;56.80;;;;;;7360311;19;20011;-69
2022/10/02 12:07:33;;;;;;;1.40;0.80;;;13.50;57.10;;;;;;7358340;19;20011;-70
2022/10/02 12:10:18;;;;;;;1.20;0.90;;;13.50;57.90;;;;;;7380186;19;20428;-70
2022/10/02 12:13:04;;;;;;;1.08;0.80;;;13.60;59.40;;;;;;7360764;19;20529;-69
2022/10/02 12:15:45;;;;;;;1.63;0.80;;;13.60;59.80;;;;;;7359478;19;20015;-70
2022/10/02 12:18:27;;;;;;;1.27;0.82;;;13.50;57.40;;;;;;7358101;19;20006;-70
2022/10/02 12:27:08;;;;;;;0.85;0.75;;;13.80;56.80;;;;;;7354918;19;20010;-69
2022/10/02 12:30:08;;;;;;;0.80;0.80;;;13.70;55.80;;;;;;7356331;19;20389;-69
2022/10/02 12:33:08;;;;;;;0.88;0.80;;;13.60;56.80;;;;;;7358561;19;20014;-70
2022/10/02 12:35:56;;;;;;;1.88;0.80;;;13.70;56.10;;;;;;7358149;19;20482;-70
2022/10/02 12:38:36;;;;;;;0.90;0.77;;;13.60;55.70;;;;;;7355047;19;20509;-69
2022/10/02 12:41:18;;;;;;;1.70;1.00;;;13.60;56.60;;;;;;7358201;19;20014;-70
2022/10/02 12:44:17;;;;;;;1.42;0.80;;;13.60;56.70;;;;;;7360158;19;20037;-69
2022/10/02 12:47:06;;;;;;;0.98;0.80;;;13.50;58.30;;;;;;7358280;19;20358;-69
2022/10/02 12:49:49;;;;;;;1.25;1.00;;;13.60;60.80;;;;;;7357463;19;20038;-69
2022/10/02 12:52:43;;;;;;;1.20;1.10;;;13.50;61.30;;;;;;7359635;19;20017;-69
2022/10/02 12:55:45;;;;;;;1.42;0.93;;;13.60;63.00;;;;;;7359915;19;20949;-69
2022/10/02 12:58:22;;;;;;;1.77;1.00;;;13.50;62.70;;;;;;7356258;19;20021;-69
2022/10/02 13:01:12;;;;;;;1.65;1.13;;;13.60;64.90;;;;;;7380076;19;20421;-69
2022/10/02 13:04:15;;;;;;;1.85;1.00;;;13.60;63.00;;;;;;7358502;19;20044;-69
2022/10/02 13:07:18;;;;;;;1.25;0.80;;;13.60;62.90;;;;;;7356752;19;20017;-69
2022/10/02 13:09:54;;;;;;;1.30;1.00;;;13.50;63.70;;;;;;7355413;19;20482;-69
2022/10/02 13:12:50;;;;;;;1.08;0.80;;;13.40;63.40;;;;;;7358083;19;20575;-69
2022/10/02 13:15:41;;;;;;;2.33;0.80;;;13.30;62.70;;;;;;7358373;19;20021;-69
2022/10/02 13:18:32;;;;;;;2.00;1.00;;;13.30;64.10;;;;;;7356046;19;20011;-69
2022/10/02 13:21:15;;;;;;;2.03;1.50;;;13.20;63.30;;;;;;7358316;19;20011;-71
2022/10/02 13:23:56;;;;;;;0.88;0.55;;;13.40;65.00;;;;;;7357966;19;20014;-69
2022/10/02 13:26:34;;;;;;;1.00;0.70;;;13.20;63.20;;;;;;7356992;19;20015;-68
2022/10/02 13:29:25;;;;;;;1.98;0.60;;;13.10;60.20;;;;;;7357035;19;20014;-69
2022/10/02 13:32:11;;;;;;;0.70;0.70;;;13.00;59.70;;;;;;7357130;19;20367;-69
2022/10/02 13:35:00;;;;;;;1.00;0.57;;;13.10;60.20;;;;;;7362963;19;20046;-69
2022/10/02 13:37:44;;;;;;;0.90;0.70;;;13.10;60.30;;;;;;7361672;19;20065;-71
2022/10/02 13:40:23;;;;;;;1.45;0.70;;;13.20;59.70;;;;;;7365814;19;20022;-70
2022/10/02 13:43:16;;;;;;;1.15;0.90;;;13.20;60.30;;;;;;7387405;19;20018;-70
2022/10/02 13:45:54;;;;;;;0.88;0.70;;;13.30;60.40;;;;;;7364856;19;20014;-70
2022/10/02 13:48:32;;;;;;;1.05;0.90;;;13.40;59.50;;;;;;7363677;19;20419;-69
2022/10/02 13:51:09;;;;;;;1.15;0.80;;;13.30;60.40;;;;;;7362271;19;20014;-69
2022/10/02 13:54:17;;;;;;;1.02;0.80;;;13.30;60.40;;;;;;7364120;19;20015;-69
2022/10/02 13:56:53;;;;;;;1.40;0.65;;;13.20;59.30;;;;;;7360277;19;20010;-70
2022/10/02 13:59:42;;;;;;;1.33;0.77;;;13.10;59.20;;;;;;7363263;19;20574;-69
2022/10/02 14:02:25;;;;;;;0.40;0.40;;;13.10;59.20;;;;;;7365364;19;20074;-69
2022/10/02 14:05:04;;;;;;;0.95;0.70;;;13.10;58.60;;;;;;7364236;19;20097;-70
2022/10/02 14:07:47;;;;;;;1.17;0.90;;;13.20;60.40;;;;;;7361609;19;20362;-70
2022/10/02 14:10:31;;;;;;;1.50;0.98;;;13.10;58.90;;;;;;7363928;19;20891;-70
2022/10/02 14:13:15;;;;;;;2.22;1.90;;;13.10;59.20;;;;;;7386467;19;20338;-70
2022/10/02 14:16:01;;;;;;;1.40;1.13;;;13.10;60.40;;;;;;7364228;19;20015;-69
2022/10/02 14:18:53;;;;;;;2.20;1.73;;;13.10;60.40;;;;;;7361171;19;20034;-69
2022/10/02 14:21:31;;;;;;;4.68;1.80;;;13.20;61.20;;;;;;7363863;19;20074;-69
2022/10/02 14:24:58;;;;;;;2.25;1.60;;;13.30;61.70;;;;;;7363553;19;20011;-69